Time;durP1;ratioP1;P1;durP2;ratioP2;P2;SDS_P1;SDS_P2;PMS_P1;PMS_P2;Temp;Humidity;BMP_temperature;BMP_pressure;BME280_temperature;BME280_humidity;BME280_pressure;Samples;Min_cycle;Max_cycle;Signal;HPM_P1;HPM_P2
2022/07/18 00:01:46;;;;;;;4.32;2.70;;;15.10;99.90;;;;;;5007017;28;20100;-61
2022/07/18 00:04:12;;;;;;;3.70;2.47;;;15.00;99.90;;;;;;5005572;28;20073;-61
2022/07/18 00:06:38;;;;;;;7.90;3.33;;;15.00;99.90;;;;;;4988589;28;20027;-61
2022/07/18 00:09:03;;;;;;;4.72;3.05;;;14.90;99.90;;;;;;5009052;28;20030;-61
2022/07/18 00:11:30;;;;;;;4.55;3.05;;;14.80;99.90;;;;;;5008853;28;20048;-61
2022/07/18 00:13:55;;;;;;;7.05;3.10;;;14.80;99.90;;;;;;5007303;28;20042;-61
2022/07/18 00:16:22;;;;;;;7.18;3.20;;;14.70;99.90;;;;;;5008565;28;20106;-61
2022/07/18 00:18:49;;;;;;;9.15;3.00;;;14.80;99.90;;;;;;5006207;28;20026;-61
2022/07/18 00:21:15;;;;;;;6.72;3.05;;;14.60;99.90;;;;;;5008777;28;20101;-61
2022/07/18 00:23:40;;;;;;;4.60;2.92;;;14.70;99.90;;;;;;5004050;28;20034;-61
2022/07/18 00:26:06;;;;;;;4.97;2.90;;;14.70;99.90;;;;;;5010312;28;20516;-61
2022/07/18 00:28:32;;;;;;;4.30;3.03;;;14.80;99.90;;;;;;5008459;28;20533;-61
2022/07/18 00:30:57;;;;;;;6.00;3.13;;;14.70;99.90;;;;;;5010085;28;20388;-61
2022/07/18 00:33:23;;;;;;;7.13;3.10;;;14.60;99.90;;;;;;5008030;28;20058;-61
2022/07/18 00:35:49;;;;;;;6.80;2.95;;;14.50;99.90;;;;;;5009839;28;20476;-61
2022/07/18 00:38:15;;;;;;;3.65;2.97;;;14.40;99.90;;;;;;5008405;28;20030;-61
2022/07/18 00:40:41;;;;;;;5.00;2.90;;;14.30;99.90;;;;;;5009070;28;20044;-61
2022/07/18 00:43:07;;;;;;;5.47;2.75;;;14.30;99.90;;;;;;5008504;28;20468;-61
2022/07/18 00:45:32;;;;;;;4.80;2.70;;;14.30;99.90;;;;;;5006066;28;20041;-61
2022/07/18 00:47:58;;;;;;;6.20;2.72;;;14.20;99.90;;;;;;5008070;28;20033;-61
2022/07/18 00:50:24;;;;;;;4.20;2.83;;;14.20;99.90;;;;;;5007614;28;20096;-61
2022/07/18 00:52:50;;;;;;;7.28;3.42;;;14.20;99.90;;;;;;5007697;28;20032;-61
2022/07/18 00:55:16;;;;;;;10.25;3.10;;;14.20;99.90;;;;;;4986711;28;20026;-61
2022/07/18 00:57:43;;;;;;;6.70;3.22;;;14.30;99.90;;;;;;5008837;28;20096;-61
2022/07/18 01:02:55;;;;;;;4.65;3.08;;;14.20;99.90;;;;;;5004684;28;20044;-61
2022/07/18 01:05:20;;;;;;;6.55;3.08;;;14.20;99.90;;;;;;5009075;28;20026;-61
2022/07/18 01:07:46;;;;;;;6.47;3.05;;;14.20;99.90;;;;;;5005939;28;20079;-61
2022/07/18 01:10:12;;;;;;;6.38;3.13;;;14.00;99.90;;;;;;5008643;28;20036;-61
2022/07/18 01:12:38;;;;;;;5.65;3.03;;;14.00;99.90;;;;;;5007174;28;20068;-61
2022/07/18 01:15:05;;;;;;;6.75;2.90;;;13.80;99.90;;;;;;5006896;28;20058;-61
2022/07/18 01:17:31;;;;;;;5.03;2.80;;;13.70;99.90;;;;;;5004911;28;20040;-61
2022/07/18 01:19:56;;;;;;;7.70;3.15;;;13.80;99.90;;;;;;4987790;28;20034;-61
2022/07/18 01:22:22;;;;;;;5.47;3.40;;;13.90;99.90;;;;;;5001842;28;20476;-61
2022/07/18 01:24:48;;;;;;;5.22;2.88;;;13.90;99.90;;;;;;5008345;28;20049;-61
2022/07/18 01:27:16;;;;;;;5.10;2.90;;;13.80;99.90;;;;;;5004500;28;20046;-61
2022/07/18 01:29:42;;;;;;;4.55;2.92;;;13.70;99.90;;;;;;5007446;28;20120;-61
2022/07/18 01:32:09;;;;;;;6.80;3.40;;;13.60;99.90;;;;;;5008229;28;20033;-61
2022/07/18 01:34:35;;;;;;;5.32;3.08;;;13.50;99.90;;;;;;5005844;28;20388;-61
2022/07/18 01:37:02;;;;;;;5.18;3.10;;;13.40;99.90;;;;;;4989537;28;20030;-61
2022/07/18 01:39:28;;;;;;;5.65;3.10;;;13.40;99.90;;;;;;5006568;28;20037;-61
2022/07/18 01:41:58;;;;;;;5.22;2.85;;;13.50;99.90;;;;;;5005759;28;20036;-61
2022/07/18 01:44:24;;;;;;;3.20;2.28;;;13.40;99.90;;;;;;5007044;28;20116;-61
2022/07/18 01:46:50;;;;;;;7.10;3.03;;;13.40;99.90;;;;;;5006114;28;20165;-61
2022/07/18 01:49:17;;;;;;;4.85;3.28;;;13.30;99.90;;;;;;5008824;28;20041;-61
2022/07/18 01:51:47;;;;;;;6.78;3.17;;;13.30;99.90;;;;;;5007259;28;20065;-61
2022/07/18 01:54:12;;;;;;;7.05;3.30;;;13.30;99.90;;;;;;4985304;28;20255;-61
2022/07/18 01:56:38;;;;;;;7.57;3.30;;;13.20;99.90;;;;;;4998850;28;20396;-61
2022/07/18 01:59:04;;;;;;;4.70;2.80;;;13.10;99.90;;;;;;5004662;28;20030;-61
2022/07/18 02:01:29;;;;;;;5.30;3.10;;;13.00;99.90;;;;;;4984858;28;20022;-61
2022/07/18 02:03:55;;;;;;;5.47;3.30;;;12.90;99.90;;;;;;5004212;28;20038;-61
2022/07/18 02:06:21;;;;;;;6.15;3.00;;;13.00;99.90;;;;;;5006176;28;20395;-61
2022/07/18 02:08:46;;;;;;;5.47;2.90;;;13.00;99.90;;;;;;5008413;28;20037;-61
2022/07/18 02:11:12;;;;;;;4.97;3.30;;;13.00;99.90;;;;;;5004928;28;20465;-61
2022/07/18 02:13:38;;;;;;;4.38;2.85;;;13.00;99.90;;;;;;4985937;28;20384;-61
2022/07/18 02:16:04;;;;;;;6.05;3.30;;;13.00;99.90;;;;;;5008062;28;20429;-61
2022/07/18 02:18:32;;;;;;;5.78;3.13;;;13.10;99.90;;;;;;5005319;28;20104;-61
2022/07/18 02:20:59;;;;;;;4.88;3.08;;;13.10;99.90;;;;;;5005579;28;20030;-61
2022/07/18 02:23:25;;;;;;;4.78;3.22;;;13.10;99.90;;;;;;5001055;28;20030;-61
2022/07/18 02:25:50;;;;;;;4.63;3.17;;;13.00;99.90;;;;;;5004943;28;20581;-61
2022/07/18 02:28:16;;;;;;;4.25;2.80;;;13.00;99.90;;;;;;5008130;28;20575;-61
2022/07/18 02:30:42;;;;;;;3.88;3.05;;;13.00;99.90;;;;;;5008906;28;20384;-61
2022/07/18 02:33:07;;;;;;;5.53;3.05;;;12.80;99.90;;;;;;5012149;28;20064;-61
2022/07/18 02:35:33;;;;;;;11.10;3.45;;;12.60;99.90;;;;;;5010934;28;20065;-61
2022/07/18 02:37:59;;;;;;;6.47;3.40;;;12.50;99.90;;;;;;5010275;28;20034;-61
2022/07/18 02:40:25;;;;;;;6.30;3.08;;;12.40;99.90;;;;;;5011889;28;20557;-61
2022/07/18 02:42:51;;;;;;;5.30;2.83;;;12.30;99.90;;;;;;5010637;28;20046;-61
2022/07/18 02:45:16;;;;;;;5.50;3.38;;;12.30;99.90;;;;;;5010547;28;20034;-61
2022/07/18 02:47:42;;;;;;;5.82;3.20;;;12.30;99.90;;;;;;4990891;28;20061;-61
2022/07/18 02:50:09;;;;;;;7.68;3.05;;;12.40;99.90;;;;;;5001907;28;20030;-61
2022/07/18 02:52:34;;;;;;;4.50;3.20;;;12.40;99.90;;;;;;5011293;28;20042;-61
2022/07/18 02:55:01;;;;;;;7.97;3.47;;;12.50;99.90;;;;;;5004521;28;20081;-60
2022/07/18 02:57:27;;;;;;;7.07;3.40;;;12.40;99.90;;;;;;5010558;28;20034;-61
2022/07/18 02:59:53;;;;;;;6.88;3.25;;;12.40;99.90;;;;;;5008142;28;20488;-61
2022/07/18 03:02:19;;;;;;;6.72;3.80;;;12.40;99.90;;;;;;5010531;28;20034;-60
2022/07/18 03:04:44;;;;;;;5.20;3.28;;;12.50;99.90;;;;;;5006946;28;20038;-61
2022/07/18 03:07:10;;;;;;;5.82;3.00;;;12.50;99.90;;;;;;5009999;28;20030;-61
2022/07/18 03:09:36;;;;;;;6.38;3.67;;;12.50;99.90;;;;;;5002499;28;20464;-61
2022/07/18 03:12:02;;;;;;;11.75;3.67;;;12.40;99.90;;;;;;5003132;28;20758;-61
2022/07/18 03:14:27;;;;;;;7.63;3.13;;;12.40;99.90;;;;;;5002612;28;20026;-61
2022/07/18 03:16:53;;;;;;;4.03;2.85;;;12.30;99.90;;;;;;4999459;28;20072;-62
2022/07/18 03:19:19;;;;;;;6.65;3.25;;;12.20;99.90;;;;;;5008036;28;20022;-61
2022/07/18 03:21:45;;;;;;;5.13;3.17;;;12.20;99.90;;;;;;5008054;28;20104;-61
2022/07/18 03:24:10;;;;;;;5.13;3.40;;;12.30;99.90;;;;;;5007559;28;20152;-61
2022/07/18 03:26:38;;;;;;;5.10;3.15;;;12.20;99.90;;;;;;5005928;28;20145;-61
2022/07/18 03:29:03;;;;;;;7.20;3.35;;;12.20;99.90;;;;;;4992913;28;20045;-61
2022/07/18 03:31:29;;;;;;;7.32;3.38;;;12.10;99.90;;;;;;5004584;28;20477;-61
2022/07/18 03:33:55;;;;;;;5.80;3.28;;;12.10;99.90;;;;;;5000239;28;20551;-61
2022/07/18 03:36:20;;;;;;;4.75;2.90;;;12.00;99.90;;;;;;5007293;28;20030;-62
2022/07/18 03:38:46;;;;;;;7.80;3.03;;;12.00;99.90;;;;;;5010055;28;20034;-61
2022/07/18 03:41:12;;;;;;;6.45;3.35;;;12.00;99.90;;;;;;5010734;28;20034;-61
2022/07/18 03:43:39;;;;;;;6.30;3.55;;;12.10;99.90;;;;;;5009361;28;20042;-61
2022/07/18 03:46:06;;;;;;;5.05;3.35;;;12.10;99.90;;;;;;5009241;28;20033;-61
2022/07/18 03:48:32;;;;;;;6.78;3.47;;;12.00;99.90;;;;;;5009026;28;20030;-61
2022/07/18 03:50:58;;;;;;;4.65;3.08;;;12.00;99.90;;;;;;5000974;28;20030;-61
2022/07/18 03:53:24;;;;;;;6.03;3.13;;;11.90;99.90;;;;;;5008761;28;20036;-61
2022/07/18 03:55:50;;;;;;;5.80;3.30;;;12.00;99.90;;;;;;5010219;28;20034;-61
2022/07/18 03:58:15;;;;;;;6.10;3.63;;;12.10;99.90;;;;;;5006127;28;20141;-60
2022/07/18 04:00:41;;;;;;;5.68;3.40;;;12.10;99.90;;;;;;4997081;28;20477;-62
2022/07/18 04:03:07;;;;;;;5.38;3.13;;;12.20;99.90;;;;;;5003415;28;20122;-61
2022/07/18 04:05:33;;;;;;;8.23;3.30;;;12.30;99.90;;;;;;4988918;28;20366;-61
2022/07/18 04:07:59;;;;;;;4.53;3.05;;;12.30;99.90;;;;;;5009112;28;20038;-60
2022/07/18 04:10:25;;;;;;;4.60;3.10;;;12.40;99.90;;;;;;5009532;28;20040;-61
2022/07/18 04:12:53;;;;;;;6.93;3.60;;;12.40;99.90;;;;;;4997672;28;20100;-60
2022/07/18 04:15:21;;;;;;;5.95;3.35;;;12.30;99.90;;;;;;5009517;28;20559;-60
2022/07/18 04:17:47;;;;;;;9.30;3.13;;;12.40;99.90;;;;;;4998123;28;20098;-61
2022/07/18 04:20:14;;;;;;;8.93;3.35;;;12.40;99.90;;;;;;4993677;28;20045;-60
2022/07/18 04:22:53;;;;;;;7.32;3.03;;;12.50;99.90;;;;;;5003050;28;20042;-61
2022/07/18 04:25:20;;;;;;;6.45;3.30;;;12.50;99.90;;;;;;5010429;28;20566;-61
2022/07/18 04:27:46;;;;;;;4.00;2.88;;;12.50;99.90;;;;;;5008966;28;20153;-61
2022/07/18 04:30:14;;;;;;;9.32;2.90;;;12.40;99.90;;;;;;5007064;28;20073;-61
2022/07/18 04:32:39;;;;;;;5.68;2.92;;;12.60;99.90;;;;;;4991395;28;20035;-60
2022/07/18 04:35:06;;;;;;;4.65;3.15;;;12.70;99.90;;;;;;5008898;28;20045;-61
2022/07/18 04:37:33;;;;;;;5.93;3.13;;;12.80;99.90;;;;;;4994916;28;20435;-60
2022/07/18 04:39:59;;;;;;;10.52;3.20;;;13.00;99.90;;;;;;5009651;28;20030;-60
2022/07/18 04:42:25;;;;;;;4.95;3.08;;;13.10;99.90;;;;;;5006936;28;20065;-61
2022/07/18 04:44:51;;;;;;;6.30;3.33;;;13.20;99.90;;;;;;4990388;28;20058;-61
2022/07/18 04:47:17;;;;;;;6.07;3.30;;;13.20;99.90;;;;;;5003778;28;20026;-61
2022/07/18 04:49:43;;;;;;;9.35;3.70;;;13.10;99.90;;;;;;5008993;28;20141;-60
2022/07/18 04:52:08;;;;;;;5.47;3.00;;;13.20;99.90;;;;;;4998472;28;20019;-61
2022/07/18 04:54:34;;;;;;;6.90;3.30;;;13.20;99.90;;;;;;4979630;28;20034;-60
2022/07/18 04:57:00;;;;;;;8.50;3.58;;;13.20;99.90;;;;;;5008115;28;20026;-60
2022/07/18 04:59:26;;;;;;;5.55;3.30;;;13.40;99.90;;;;;;5009553;28;20057;-60
2022/07/18 05:01:51;;;;;;;5.03;3.10;;;13.50;99.90;;;;;;5001682;28;20038;-61
2022/07/18 05:04:17;;;;;;;6.35;3.30;;;13.70;99.90;;;;;;4989659;28;20034;-60
2022/07/18 05:06:43;;;;;;;6.07;3.78;;;13.80;99.90;;;;;;4995752;28;20049;-60
2022/07/18 05:09:08;;;;;;;4.75;3.20;;;13.90;99.90;;;;;;5006615;28;20384;-60
2022/07/18 05:11:34;;;;;;;7.45;3.30;;;14.10;99.90;;;;;;5008798;28;20460;-59
2022/07/18 05:14:00;;;;;;;4.50;3.25;;;14.20;99.90;;;;;;4994804;28;20733;-61
2022/07/18 05:16:25;;;;;;;7.13;3.75;;;14.30;99.90;;;;;;5008319;28;20088;-61
2022/07/18 05:18:51;;;;;;;7.18;4.10;;;14.20;99.90;;;;;;5007527;28;20045;-60
2022/07/18 05:21:17;;;;;;;6.85;3.85;;;14.40;99.90;;;;;;5008142;28;20065;-60
2022/07/18 05:23:42;;;;;;;6.15;3.75;;;14.60;99.90;;;;;;5008117;28;20090;-60
2022/07/18 05:26:08;;;;;;;9.25;3.70;;;14.80;99.90;;;;;;5008767;28;20101;-60
2022/07/18 05:28:34;;;;;;;5.45;3.20;;;14.90;99.90;;;;;;5008962;28;20057;-60
2022/07/18 05:31:00;;;;;;;6.15;3.80;;;15.00;99.90;;;;;;5001930;28;20062;-60
2022/07/18 05:33:25;;;;;;;5.20;3.40;;;15.10;99.90;;;;;;5005525;28;20068;-61
2022/07/18 05:35:51;;;;;;;6.38;3.53;;;15.20;99.90;;;;;;5006549;28;20088;-61
2022/07/18 05:38:17;;;;;;;5.40;3.13;;;15.30;99.90;;;;;;4995389;28;20026;-60
2022/07/18 05:40:42;;;;;;;8.13;3.65;;;15.50;99.90;;;;;;5006812;28;20083;-60
2022/07/18 05:43:08;;;;;;;10.38;3.63;;;15.70;99.90;;;;;;5008489;28;20066;-60
2022/07/18 05:45:34;;;;;;;4.57;3.35;;;15.80;99.90;;;;;;5006991;28;20033;-61
2022/07/18 05:48:00;;;;;;;8.85;3.58;;;16.00;99.90;;;;;;4993393;28;20037;-60
2022/07/18 05:50:25;;;;;;;6.70;3.25;;;16.00;99.90;;;;;;5009351;28;20030;-60
2022/07/18 05:52:51;;;;;;;8.43;3.28;;;16.20;99.90;;;;;;5007193;28;20057;-61
2022/07/18 05:55:17;;;;;;;6.93;3.30;;;16.30;99.90;;;;;;5007893;28;20060;-61
2022/07/18 05:57:43;;;;;;;5.90;3.25;;;16.40;99.90;;;;;;4997330;28;20108;-61
2022/07/18 06:00:12;;;;;;;6.15;3.17;;;16.50;99.90;;;;;;5007093;28;20953;-61
2022/07/18 06:02:38;;;;;;;6.80;3.40;;;16.60;99.90;;;;;;5007106;28;20041;-61
2022/07/18 06:05:06;;;;;;;8.57;3.47;;;16.80;99.90;;;;;;5009386;28;20034;-61
2022/07/18 06:07:32;;;;;;;6.13;3.05;;;16.90;99.90;;;;;;5003830;28;20369;-61
2022/07/18 06:09:57;;;;;;;4.65;3.03;;;16.80;99.90;;;;;;5011983;28;20468;-61
2022/07/18 06:12:23;;;;;;;9.20;3.53;;;16.80;99.90;;;;;;5012065;28;20072;-61
2022/07/18 06:14:49;;;;;;;14.05;3.30;;;17.10;99.90;;;;;;5011430;28;20064;-61
2022/07/18 06:17:14;;;;;;;7.28;3.33;;;17.30;99.90;;;;;;4997116;28;20038;-61
2022/07/18 06:19:41;;;;;;;4.88;2.90;;;17.60;99.90;;;;;;5012349;28;20400;-61
2022/07/18 06:22:07;;;;;;;4.20;2.80;;;17.80;99.90;;;;;;5003743;28;20025;-61
2022/07/18 06:24:33;;;;;;;5.10;2.83;;;18.00;99.90;;;;;;5008470;28;20030;-61
2022/07/18 06:26:58;;;;;;;4.68;3.00;;;18.30;99.90;;;;;;5011654;28;20049;-61
2022/07/18 06:29:24;;;;;;;4.50;2.53;;;18.50;99.90;;;;;;5010937;28;20030;-61
2022/07/18 06:31:50;;;;;;;5.28;2.92;;;18.80;99.90;;;;;;5005780;28;20034;-61
2022/07/18 06:34:15;;;;;;;5.07;2.65;;;19.00;99.90;;;;;;5008348;28;20766;-61
2022/07/18 06:36:41;;;;;;;3.95;2.67;;;19.10;99.90;;;;;;5009762;28;20551;-61
2022/07/18 06:39:10;;;;;;;5.32;2.60;;;19.30;99.90;;;;;;5011641;28;20127;-61
2022/07/18 06:41:38;;;;;;;5.95;2.60;;;19.30;99.90;;;;;;5012522;28;20022;-61
2022/07/18 06:44:04;;;;;;;8.00;2.65;;;19.50;99.90;;;;;;5007289;28;20049;-61
2022/07/18 06:46:30;;;;;;;6.68;2.90;;;19.60;99.90;;;;;;5006629;28;20030;-61
2022/07/18 06:48:55;;;;;;;6.20;2.80;;;19.80;99.90;;;;;;5008436;28;20033;-61
2022/07/18 06:51:21;;;;;;;7.03;2.53;;;20.10;99.50;;;;;;5009657;28;20034;-61
2022/07/18 06:53:47;;;;;;;4.07;2.47;;;20.30;98.50;;;;;;5007077;28;20049;-61
2022/07/18 06:56:12;;;;;;;12.32;2.53;;;20.50;98.30;;;;;;5009470;28;20033;-61
2022/07/18 06:58:38;;;;;;;4.40;2.30;;;20.70;97.40;;;;;;5005852;28;20030;-60
2022/07/18 07:01:04;;;;;;;4.18;2.50;;;20.80;98.40;;;;;;5005223;28;20033;-61
2022/07/18 07:03:30;;;;;;;16.25;2.97;;;21.00;96.80;;;;;;4992602;28;20117;-61
2022/07/18 07:05:55;;;;;;;5.60;2.80;;;21.10;96.60;;;;;;5004480;28;20161;-61
2022/07/18 07:08:21;;;;;;;5.13;2.63;;;21.20;95.20;;;;;;5009476;28;20030;-61
2022/07/18 07:10:46;;;;;;;11.65;2.50;;;21.30;96.30;;;;;;5007282;28;20034;-61
2022/07/18 07:13:12;;;;;;;15.85;2.83;;;21.40;96.20;;;;;;5011277;28;20036;-61
2022/07/18 07:15:40;;;;;;;5.15;2.55;;;21.60;94.80;;;;;;5008961;28;20531;-61
2022/07/18 07:18:06;;;;;;;3.88;2.60;;;21.90;96.20;;;;;;4993194;28;20031;-61
2022/07/18 07:20:32;;;;;;;4.93;2.47;;;22.20;95.40;;;;;;5011597;28;20045;-61
2022/07/18 07:22:57;;;;;;;12.77;2.78;;;22.30;93.00;;;;;;5004998;28;20129;-62
2022/07/18 07:25:25;;;;;;;8.50;2.60;;;22.40;93.00;;;;;;5008931;28;20386;-61
2022/07/18 07:27:52;;;;;;;5.05;2.35;;;22.60;91.90;;;;;;5009932;28;20558;-61
2022/07/18 07:30:18;;;;;;;4.57;2.60;;;22.90;91.50;;;;;;4991645;28;20037;-61
2022/07/18 07:32:44;;;;;;;6.43;2.40;;;23.10;90.30;;;;;;4995064;28;20038;-61
2022/07/18 07:35:12;;;;;;;5.20;2.38;;;23.30;90.90;;;;;;4991233;28;20388;-61
2022/07/18 07:37:43;;;;;;;7.03;2.75;;;23.40;90.70;;;;;;4989278;28;20113;-61
2022/07/18 07:40:10;;;;;;;3.15;2.58;;;23.40;87.60;;;;;;4996453;28;20037;-61
2022/07/18 07:42:36;;;;;;;21.25;3.72;;;23.40;88.00;;;;;;4999216;28;20124;-61
2022/07/18 07:45:03;;;;;;;5.90;2.40;;;23.70;90.40;;;;;;4990082;28;20025;-61
2022/07/18 07:47:28;;;;;;;5.85;2.90;;;23.90;82.40;;;;;;4986554;28;20037;-61
2022/07/18 07:49:55;;;;;;;4.47;2.50;;;24.10;82.60;;;;;;5009794;28;20026;-61
2022/07/18 07:52:23;;;;;;;5.35;2.70;;;24.40;81.00;;;;;;5008263;28;20036;-61
2022/07/18 07:54:48;;;;;;;7.22;2.78;;;24.60;77.50;;;;;;5007574;28;20108;-61
2022/07/18 07:57:14;;;;;;;4.22;2.92;;;24.80;70.40;;;;;;5004208;28;20492;-61
2022/07/18 07:59:40;;;;;;;5.78;2.97;;;25.00;69.80;;;;;;5006308;28;20045;-61
2022/07/18 08:02:05;;;;;;;7.15;3.05;;;25.20;70.30;;;;;;5004994;28;20055;-62
2022/07/18 08:04:31;;;;;;;11.60;3.05;;;25.40;66.10;;;;;;5008626;28;20075;-62
2022/07/18 08:06:57;;;;;;;5.55;2.90;;;25.50;69.70;;;;;;5002231;28;20377;-61
2022/07/18 08:09:23;;;;;;;7.35;3.08;;;25.70;70.20;;;;;;4999899;28;20112;-61
2022/07/18 08:11:48;;;;;;;5.30;3.05;;;25.90;65.20;;;;;;4992028;28;20026;-61
2022/07/18 08:14:14;;;;;;;6.07;3.03;;;26.00;65.40;;;;;;5004263;28;20030;-62
2022/07/18 08:16:40;;;;;;;6.30;3.25;;;26.00;67.80;;;;;;5004238;28;20034;-62
2022/07/18 08:19:06;;;;;;;6.32;3.30;;;25.90;66.10;;;;;;4987304;28;20038;-62
2022/07/18 08:21:32;;;;;;;5.80;3.13;;;26.00;65.60;;;;;;5007664;28;20121;-61
2022/07/18 08:23:57;;;;;;;5.18;3.25;;;26.00;63.80;;;;;;4987813;28;20109;-62
2022/07/18 08:26:23;;;;;;;8.68;3.10;;;26.10;62.30;;;;;;5008822;28;20046;-60
2022/07/18 08:28:48;;;;;;;4.43;3.08;;;26.20;65.40;;;;;;5002698;28;20368;-59
2022/07/18 08:31:14;;;;;;;5.45;3.17;;;26.50;64.10;;;;;;5009160;28;20508;-60
2022/07/18 08:33:40;;;;;;;5.50;3.10;;;26.80;64.80;;;;;;5009006;28;20048;-59
2022/07/18 08:36:08;;;;;;;6.35;2.83;;;27.00;64.20;;;;;;5008815;28;20479;-59
2022/07/18 08:38:33;;;;;;;6.72;2.80;;;27.10;61.00;;;;;;4995878;28;20034;-61
2022/07/18 08:41:01;;;;;;;6.88;3.20;;;27.10;60.00;;;;;;5007400;28;20026;-62
2022/07/18 08:43:27;;;;;;;5.28;2.88;;;27.10;58.20;;;;;;5008536;28;20439;-61
2022/07/18 08:45:56;;;;;;;13.13;3.00;;;27.10;59.30;;;;;;5008268;28;20104;-62
2022/07/18 08:48:22;;;;;;;4.95;3.00;;;27.20;58.30;;;;;;4994676;28;20045;-62
2022/07/18 08:50:49;;;;;;;3.05;2.67;;;27.40;54.20;;;;;;4972800;28;20473;-62
2022/07/18 08:53:16;;;;;;;14.18;3.28;;;27.80;58.10;;;;;;4998615;28;20033;-62
2022/07/18 08:55:43;;;;;;;4.15;2.88;;;28.00;57.00;;;;;;4999753;28;20109;-62
2022/07/18 08:58:10;;;;;;;3.60;2.92;;;27.80;52.00;;;;;;4972889;28;20038;-62
2022/07/18 09:00:36;;;;;;;3.25;2.70;;;27.80;52.90;;;;;;5003987;28;20116;-62
2022/07/18 09:03:03;;;;;;;4.50;3.00;;;27.70;49.00;;;;;;5003738;28;20120;-62
2022/07/18 09:05:30;;;;;;;3.50;2.78;;;27.70;47.50;;;;;;5007746;28;20084;-60
2022/07/18 09:08:12;;;;;;;3.85;2.67;;;27.80;48.20;;;;;;5000397;28;20053;-60
2022/07/18 09:10:48;;;;;;;4.45;2.75;;;28.00;48.60;;;;;;5009582;28;20380;-60
2022/07/18 09:13:13;;;;;;;4.07;2.40;;;28.10;49.20;;;;;;5004469;28;20345;-60
2022/07/18 09:15:56;;;;;;;4.72;2.40;;;28.30;49.70;;;;;;5008751;28;20060;-60
2022/07/18 09:18:31;;;;;;;4.72;2.33;;;28.60;46.50;;;;;;4994845;28;20058;-62
2022/07/18 09:21:03;;;;;;;5.47;2.20;;;28.70;43.80;;;;;;4990995;28;20093;-63
2022/07/18 09:23:30;;;;;;;4.35;2.25;;;28.60;47.80;;;;;;5007766;28;20523;-62
2022/07/18 09:25:56;;;;;;;3.08;2.13;;;28.70;43.20;;;;;;4991197;28;20041;-62
2022/07/18 09:28:22;;;;;;;5.13;2.58;;;28.50;44.10;;;;;;5008598;28;20061;-62
2022/07/18 09:30:48;;;;;;;6.15;2.03;;;28.70;43.10;;;;;;5007262;28;20064;-62
2022/07/18 09:33:15;;;;;;;3.50;2.35;;;28.70;43.80;;;;;;5007445;28;20033;-62
2022/07/18 09:35:46;;;;;;;5.07;2.72;;;28.80;46.00;;;;;;5008695;28;20037;-62
2022/07/18 09:38:17;;;;;;;5.13;2.83;;;28.90;46.10;;;;;;4995441;28;20393;-62
2022/07/18 09:40:45;;;;;;;4.97;2.40;;;29.00;47.30;;;;;;5007561;28;20373;-62
2022/07/18 09:43:16;;;;;;;11.77;2.63;;;29.10;45.70;;;;;;5008798;28;20055;-62
2022/07/18 09:45:50;;;;;;;5.32;2.60;;;29.30;43.70;;;;;;4993123;28;20030;-63
2022/07/18 09:48:19;;;;;;;4.57;2.80;;;29.40;44.40;;;;;;4991516;28;20049;-63
2022/07/18 09:50:52;;;;;;;4.45;3.25;;;29.60;43.90;;;;;;5002393;28;20037;-63
2022/07/18 09:53:24;;;;;;;3.15;2.78;;;29.60;42.00;;;;;;5002862;28;20033;-63
2022/07/18 09:55:58;;;;;;;3.65;2.50;;;29.50;42.30;;;;;;5004381;28;20495;-63
2022/07/18 09:58:26;;;;;;;2.75;2.40;;;29.70;45.20;;;;;;5004628;28;20121;-65
2022/07/18 10:00:53;;;;;;;3.08;2.50;;;30.00;46.90;;;;;;5006469;28;20417;-64
2022/07/18 10:03:21;;;;;;;5.30;2.70;;;30.20;44.70;;;;;;4982140;28;20053;-63
2022/07/18 10:05:48;;;;;;;3.78;2.80;;;30.40;45.80;;;;;;4989825;28;20092;-63
2022/07/18 10:08:26;;;;;;;4.47;3.05;;;30.30;41.70;;;;;;4994837;28;20026;-63
2022/07/18 10:10:54;;;;;;;4.35;2.83;;;30.00;42.30;;;;;;4997079;28;20065;-63
2022/07/18 10:13:21;;;;;;;5.68;2.53;;;29.70;44.90;;;;;;4997864;28;20095;-64
2022/07/18 10:15:50;;;;;;;3.30;2.80;;;29.90;45.70;;;;;;5009176;28;20034;-63
2022/07/18 10:18:21;;;;;;;3.97;2.85;;;29.90;46.80;;;;;;5005762;28;20446;-64
2022/07/18 10:21:08;;;;;;;5.13;2.80;;;30.20;43.50;;;;;;5002275;28;20078;-64
2022/07/18 10:23:39;;;;;;;3.95;2.83;;;30.40;43.00;;;;;;5006888;28;20029;-64
2022/07/18 10:26:16;;;;;;;6.65;3.00;;;30.50;44.10;;;;;;5004131;28;20139;-63
2022/07/18 10:28:59;;;;;;;6.78;2.60;;;30.60;41.30;;;;;;4991675;28;20053;-64
2022/07/18 10:31:28;;;;;;;7.70;2.70;;;30.50;44.40;;;;;;5000200;28;20133;-64
2022/07/18 10:34:06;;;;;;;5.97;2.88;;;30.50;42.50;;;;;;4999957;28;20072;-64
2022/07/18 10:36:34;;;;;;;4.57;2.83;;;30.60;42.20;;;;;;4994796;28;20031;-64
2022/07/18 10:39:19;;;;;;;3.58;2.78;;;30.90;42.20;;;;;;5001279;28;20085;-65
2022/07/18 10:41:48;;;;;;;4.05;2.85;;;31.10;40.50;;;;;;5008249;28;20034;-65
2022/07/18 10:44:23;;;;;;;3.95;2.88;;;31.10;40.50;;;;;;4999196;28;20084;-65
2022/07/18 10:47:23;;;;;;;3.47;2.75;;;31.10;41.00;;;;;;5008914;28;20026;-65
2022/07/18 10:49:52;;;;;;;3.97;2.88;;;31.00;40.50;;;;;;4994331;28;20057;-64
2022/07/18 10:52:30;;;;;;;3.57;2.50;;;31.20;43.10;;;;;;4974455;28;20038;-64
2022/07/18 10:55:16;;;;;;;3.42;2.80;;;31.00;43.10;;;;;;5009001;28;20037;-64
2022/07/18 10:57:49;;;;;;;3.25;2.90;;;30.90;42.80;;;;;;5008136;28;20404;-65
2022/07/18 11:00:27;;;;;;;6.78;2.78;;;31.20;42.20;;;;;;5008799;28;20026;-63
2022/07/18 11:03:07;;;;;;;5.30;2.80;;;30.70;42.80;;;;;;5009305;28;20049;-64
2022/07/18 11:05:36;;;;;;;;;;;30.60;45.30;;;;;;5006973;28;20106;-64
2022/07/18 11:08:02;;;;;;;5.05;2.70;;;30.60;42.60;;;;;;5006779;28;19914;-64
2022/07/18 11:10:54;;;;;;;4.45;2.63;;;30.70;44.40;;;;;;5008735;28;20113;-63
2022/07/18 11:13:31;;;;;;;3.40;2.90;;;30.70;41.50;;;;;;5005210;28;20423;-63
2022/07/18 11:16:16;;;;;;;3.95;2.85;;;30.80;40.00;;;;;;5006645;28;20116;-65
2022/07/18 11:18:44;;;;;;;3.08;2.60;;;30.90;40.90;;;;;;5006228;28;20037;-65
2022/07/18 11:21:33;;;;;;;4.00;2.63;;;31.20;42.70;;;;;;5009556;28;20022;-65
2022/07/18 11:24:11;;;;;;;2.67;2.45;;;31.90;41.20;;;;;;5008047;28;20084;-65
2022/07/18 11:26:42;;;;;;;6.43;2.67;;;32.20;41.50;;;;;;5009451;28;20049;-66
2022/07/18 11:29:10;;;;;;;3.50;2.58;;;32.50;38.40;;;;;;5009517;28;20385;-62
2022/07/18 11:31:55;;;;;;;4.68;2.75;;;32.60;39.10;;;;;;5006734;28;20030;-65
2022/07/18 11:34:23;;;;;;;3.42;2.35;;;32.70;39.00;;;;;;5003057;28;20044;-62
2022/07/18 11:36:49;;;;;;;8.35;3.00;;;32.60;39.50;;;;;;5003148;28;20026;-64
2022/07/18 11:39:26;;;;;;;4.95;2.80;;;32.70;38.80;;;;;;4998363;28;20030;-63
2022/07/18 11:41:52;;;;;;;4.28;2.90;;;32.40;39.10;;;;;;4989222;28;20113;-61
2022/07/18 11:44:26;;;;;;;3.20;2.80;;;31.80;39.80;;;;;;5007804;28;20124;-61
2022/07/18 11:47:01;;;;;;;5.13;2.88;;;31.90;39.30;;;;;;5007963;28;20361;-62
2022/07/18 11:49:27;;;;;;;3.10;2.80;;;32.20;38.00;;;;;;5006729;28;20107;-61
2022/07/18 11:51:53;;;;;;;3.58;2.85;;;32.10;38.50;;;;;;5001725;28;20057;-62
2022/07/18 11:54:23;;;;;;;5.13;3.10;;;32.40;38.00;;;;;;5005374;28;20038;-61
2022/07/18 11:56:51;;;;;;;3.38;2.45;;;32.40;39.70;;;;;;5007261;28;20527;-62
2022/07/18 11:59:18;;;;;;;5.07;3.03;;;32.60;40.50;;;;;;4989502;28;20038;-62
2022/07/18 12:01:44;;;;;;;4.32;2.60;;;32.70;41.50;;;;;;5007996;28;20112;-62
2022/07/18 12:04:19;;;;;;;6.38;3.00;;;32.80;37.90;;;;;;5003956;28;20759;-62
2022/07/18 12:06:45;;;;;;;4.80;3.00;;;32.90;38.50;;;;;;5006923;28;20093;-63
2022/07/18 12:09:11;;;;;;;8.05;2.90;;;33.00;39.80;;;;;;4996416;28;20025;-63
2022/07/18 12:11:38;;;;;;;4.93;2.53;;;33.00;39.20;;;;;;5008875;28;20511;-64
2022/07/18 12:14:09;;;;;;;4.22;2.63;;;33.10;39.10;;;;;;4999895;28;20046;-64
2022/07/18 12:16:40;;;;;;;4.20;2.60;;;33.00;38.60;;;;;;5008459;28;20030;-64
2022/07/18 12:19:14;;;;;;;4.15;2.60;;;33.00;37.40;;;;;;5008878;28;20440;-64
2022/07/18 12:21:45;;;;;;;5.28;2.60;;;32.80;37.90;;;;;;5006889;28;20392;-63
2022/07/18 12:24:49;;;;;;;3.70;2.47;;;32.80;39.90;;;;;;5008931;28;20468;-63
2022/07/18 12:27:31;;;;;;;3.22;2.85;;;32.90;37.90;;;;;;5001825;28;20108;-63
2022/07/18 12:30:13;;;;;;;3.05;2.58;;;32.80;38.80;;;;;;5008575;28;20042;-63
2022/07/18 12:32:52;;;;;;;2.85;2.55;;;32.90;38.80;;;;;;4990471;28;20030;-64
2022/07/18 12:35:25;;;;;;;4.22;2.40;;;32.70;36.90;;;;;;5002249;28;20034;-64
2022/07/18 12:37:58;;;;;;;4.78;2.40;;;32.80;36.00;;;;;;5000790;28;20739;-63
2022/07/18 12:40:45;;;;;;;2.90;2.40;;;33.10;37.50;;;;;;5007205;28;20365;-63
2022/07/18 12:43:16;;;;;;;6.15;2.60;;;33.00;34.60;;;;;;5006836;28;20046;-63
2022/07/18 12:45:43;;;;;;;8.93;2.60;;;32.60;37.10;;;;;;5009077;28;20311;-64
2022/07/18 12:48:11;;;;;;;5.72;2.50;;;32.70;41.00;;;;;;5003940;28;20037;-63
2022/07/18 12:50:38;;;;;;;3.65;2.05;;;32.90;37.60;;;;;;5001456;28;20530;-64
2022/07/18 12:53:04;;;;;;;2.85;2.55;;;33.10;36.90;;;;;;5007906;28;20033;-64